Observations
| Time | Sensor | AQI | SAQ | Temp °C | Hum % | Pres Pa | CO μg/m³ | H₂S μg/m³ | NO μg/m³ | NO₂ μg/m³ | O₃ μg/m³ | SO₂ μg/m³ | CO₂e PPM | VOC PPM | PM1 μg/m³ | PM2.5 μg/m³ | PM4 μg/m³ | PM10 μg/m³ | TPS µm |
|---|---|---|---|---|---|---|---|---|---|---|---|---|---|---|---|---|---|---|---|
| Tuesday 11 August 2026 | |||||||||||||||||||
| 16:43 | Trim Patrick St | 3 | 40.1 | 21 | 69,907 | 0 | 0 | 0 | 14.35 | 108.66 | 29.37 | 2.86 | 9.91 | 10.9 | |||||
| 16:42 | Trim Market St | 3 | 42.7 | 16 | 67,398 | 0 | 0 | 0 | 16.1 | 76.02 | 7.75 | 0 | 3.91 | 4.3 | |||||
| 16:42 | Trim Patrick St | 3 | 40 | 20 | 69,879 | 0 | 0 | 0 | 14.68 | 116.25 | 29.81 | 2 | 8.33 | 9.16 | |||||
| 16:41 | Trim Market St | 3 | 42.8 | 16 | 67,384 | 0 | 0 | 0 | 15.02 | 81.41 | 8.12 | 0 | 3.35 | 3.68 | |||||
| 16:40 | Trim Market St | 3 | 42.9 | 16 | 67,398 | 0 | 0 | 0 | 15.01 | 90.99 | 9.21 | 0 | 3.91 | 4.31 | |||||
| 16:40 | Trim Patrick St | 3 | 39.9 | 20 | 69,873 | 0 | 0 | 0 | 14.51 | 105.41 | 29.23 | 2 | 9.12 | 10.03 | |||||
| 16:39 | Trim Market St | 3 | 42.9 | 16 | 67,412 | 0 | 0 | 0 | 15.01 | 85.57 | 8.07 | 0.71 | 4.48 | 4.93 | |||||
| 16:39 | Trim Patrick St | 3 | 39.8 | 20 | 69,871 | 0 | 0 | 0 | 14.49 | 85.4 | 28.19 | 2.86 | 9.11 | 10.02 | |||||
| 16:38 | Trim Market St | 3 | 43 | 16 | 67,422 | 0 | 0 | 0 | 15.04 | 89.47 | 8 | 0.71 | 4.48 | 4.93 | |||||
| 16:38 | Trim Patrick St | 3 | 39.8 | 20 | 69,867 | 0 | 0 | 0 | 19.42 | 105.73 | 26.86 | 2 | 8.31 | 9.14 | |||||
| 16:37 | Trim Market St | 3 | 43 | 16 | 67,404 | 0 | 0 | 0 | 15.02 | 81.39 | 7.62 | 0 | 4.48 | 4.93 | |||||
| 16:37 | Trim Patrick St | 3 | 39.7 | 20 | 69,860 | 0 | 0 | 0 | 14.43 | 104.43 | 27.82 | 2 | 9.11 | 10.02 | |||||
| 16:36 | Trim Market St | 3 | 43 | 16 | 67,412 | 0 | 0 | 0 | 19.11 | 58.48 | 5.66 | 0 | 3.91 | 4.31 | |||||
| 16:36 | Trim Patrick St | 3 | 39.6 | 20 | 69,852 | 0 | 12.59 | 0 | 16.48 | 113.82 | 28.38 | 2 | 8.31 | 9.14 | |||||
| 16:35 | Trim Patrick St | 3 | 39.6 | 20 | 69,838 | 0 | 1.7 | 0 | 16.81 | 107.53 | 27.17 | 2 | 8.31 | 9.14 | |||||
| 16:34 | Trim Market St | 3 | 43 | 16 | 67,430 | 0 | 0 | 0 | 17.21 | 75.25 | 7.03 | 0.71 | 4.48 | 4.93 | |||||
| 16:34 | Trim Patrick St | 3 | 39.5 | 20 | 69,826 | 0 | 16.59 | 0 | 19.71 | 124.27 | 27.32 | 2 | 8.31 | 9.14 | |||||
| 16:33 | Trim Patrick St | 3 | 39.4 | 21 | 69,810 | 0 | 0 | 0 | 15.19 | 144.83 | 27.07 | 2 | 8.26 | 9.08 | |||||
| 16:32 | Trim Patrick St | 3 | 39.4 | 20 | 69,822 | 0 | 0 | 0 | 14.64 | 104.89 | 26.63 | 2 | 8.31 | 9.14 | |||||
| 16:32 | Trim Market St | 3 | 42.9 | 16 | 67,418 | 0 | 0 | 0 | 15.19 | 75.2 | 8.95 | 0 | 4.48 | 4.93 | |||||